Enrico Ievoli — IBKI — position and weather

sailwx.info

Track history (hours):
 
Tides and Currents Weather Stations Pressure Air Temp Water Temp Dewpoint Dewpoint Depression Visibility Wind Speed Wind Dir Waves Ship Positions

Enrico Ievoli

Last reported at 2017-Sep-20 13:37 UTC. Time now 2017-Sep-22 04:34 UTC.
Position N 44°17' E 013°09'.

Length 138 m; draft 5.7 m.

Type: Ship (hazmat cat B). MMSI: 247597000.

Date/timePositionNaut miles runAvg speedWind from/ knotsBaromVisibWave heightAir tempDewpointWater temp
2017-Sep-20 13:37N 44°17' E 013°09'214.2
2017-Sep-20 13:30N 44°18' E 013°09'714.1
2017-Sep-20 12:59N 44°25' E 013°06'714.2
2017-Sep-20 12:30N 44°31' E 013°03'714.4
2017-Sep-20 12:00N 44°38' E 012°59'714.4
2017-Sep-20 11:31N 44°45' E 012°56'714.5
2017-Sep-20 11:00N 44°52' E 012°51'714.6
2017-Sep-20 10:30N 44°58' E 012°47'714.5
2017-Sep-20 10:00N 45°05' E 012°42'714.0
2017-Sep-20 09:31N 45°09' E 012°34'713.7
2017-Sep-20 09:00N 45°14' E 012°28'613.0
2017-Sep-20 08:30N 45°19' E 012°23'510.0
2017-Sep-20 08:00N 45°21' E 012°16'5 9.3
2017-Sep-20 07:30N 45°26' E 012°16'2 3.2
2017-Sep-20 06:58N 45°26' E 012°13'0 0.0
2017-Sep-20 06:28N 45°26' E 012°13'0 0.0
2017-Sep-20 05:58N 45°26' E 012°13'0 0.0
2017-Sep-20 05:28N 45°26' E 012°13'0 0.0
2017-Sep-20 04:58N 45°26' E 012°13'0 0.0
2017-Sep-20 04:28N 45°26' E 012°13'0 0.0
2017-Sep-20 03:58N 45°26' E 012°13'0 0.0
2017-Sep-20 03:28N 45°26' E 012°13'0 0.0
2017-Sep-20 02:58N 45°26' E 012°13'0 0.0
2017-Sep-20 02:30N 45°26' E 012°13'0 0.0
2017-Sep-20 02:00N 45°26' E 012°13'0 0.0
2017-Sep-20 01:30N 45°26' E 012°13'0 0.0
2017-Sep-20 01:00N 45°26' E 012°13'0 0.0
2017-Sep-20 00:27N 45°26' E 012°13'0 0.0
2017-Sep-20 00:00N 45°26' E 012°13'0 0.0
2017-Sep-19 23:30N 45°26' E 012°13'0 0.0
2017-Sep-19 23:01N 45°26' E 012°13'0 0.0
2017-Sep-19 22:30N 45°26' E 012°13'0 0.0
2017-Sep-19 22:00N 45°26' E 012°13'0 0.0
2017-Sep-19 21:30N 45°26' E 012°13'0 0.0
2017-Sep-19 21:00N 45°26' E 012°13'0 0.0
2017-Sep-19 20:27N 45°26' E 012°13'0 0.0
2017-Sep-19 20:00N 45°26' E 012°13'0 0.0
2017-Sep-19 19:30N 45°26' E 012°13'0 0.0
2017-Sep-19 19:00N 45°26' E 012°13'0 0.0
2017-Sep-19 18:30N 45°26' E 012°13'0 0.0
2017-Sep-19 18:00N 45°26' E 012°13'0 0.0
2017-Sep-19 17:27N 45°26' E 012°13'0 0.0
2017-Sep-19 17:00N 45°26' E 012°13'0 0.0
2017-Sep-19 16:30N 45°26' E 012°13'0 0.0
2017-Sep-19 16:00N 45°26' E 012°13'0 0.0
2017-Sep-19 15:30N 45°26' E 012°13'0 0.0
2017-Sep-19 15:00N 45°26' E 012°13'0 0.0
2017-Sep-19 14:27N 45°26' E 012°13'0 0.0
2017-Sep-19 14:00N 45°26' E 012°13'0 0.0
2017-Sep-19 13:30N 45°26' E 012°13'0 0.0
2017-Sep-19 13:00N 45°26' E 012°13'0 0.0
2017-Sep-19 12:30N 45°26' E 012°13'0 0.0
2017-Sep-19 12:00N 45°26' E 012°13'0 0.0
2017-Sep-19 11:30N 45°26' E 012°13'0 0.0
2017-Sep-19 11:00N 45°26' E 012°13'0 0.0
2017-Sep-19 10:30N 45°26' E 012°13'0 0.0
2017-Sep-19 10:00N 45°26' E 012°13'0 0.0
2017-Sep-19 09:30N 45°26' E 012°13'0 0.0
2017-Sep-19 09:00N 45°26' E 012°13'0 0.0
2017-Sep-19 08:30N 45°26' E 012°13'0 0.0
2017-Sep-19 07:57N 45°26' E 012°13'0 0.0
2017-Sep-19 07:30N 45°26' E 012°13'0 0.0
2017-Sep-19 07:00N 45°26' E 012°13'0 0.0
2017-Sep-19 06:30N 45°26' E 012°13'0 0.0
2017-Sep-19 06:00N 45°26' E 012°13'0 0.1
2017-Sep-19 05:30N 45°26' E 012°13'2 3.5
2017-Sep-19 05:00N 45°25' E 012°16'4 8.9
2017-Sep-19 04:30N 45°21' E 012°16'510.9
2017-Sep-19 04:00N 45°20' E 012°23'4 8.1
2017-Sep-19 03:31N 45°19' E 012°29'4 8.1
2017-Sep-19 03:00N 45°16' E 012°33'5 9.9
2017-Sep-19 02:30N 45°13' E 012°39'510.0
2017-Sep-19 02:00N 45°10' E 012°44'510.0
2017-Sep-19 01:30N 45°07' E 012°50'510.1
2017-Sep-19 01:00N 45°02' E 012°53'510.4
2017-Sep-19 00:31N 44°58' E 012°56'510.4
2017-Sep-19 00:00N 44°53' E 012°59'510.6
2017-Sep-18 23:30N 44°48' E 013°02'510.8
2017-Sep-18 23:00N 44°43' E 013°04'611.1
2017-Sep-18 22:30N 44°38' E 013°07'611.3
2017-Sep-18 22:00N 44°32' E 013°09'611.1
2017-Sep-18 21:30N 44°27' E 013°11'510.5
2017-Sep-18 21:00N 44°22' E 013°14'5 9.9
2017-Sep-18 20:30N 44°17' E 013°16'35312.1
2017-Sep-17 15:18N 39°54' E 018°32'413.9
2017-Sep-17 15:00N 39°50' E 018°30'713.5
2017-Sep-17 14:30N 39°44' E 018°26'713.4
2017-Sep-17 14:00N 39°39' E 018°20'713.1
2017-Sep-17 13:30N 39°35' E 018°14'713.4
2017-Sep-17 13:01N 39°30' E 018°08'713.7
2017-Sep-17 12:30N 39°26' E 018°01'713.7
2017-Sep-17 12:00N 39°21' E 017°55'713.8
2017-Sep-17 11:30N 39°16' E 017°48'713.6
2017-Sep-17 11:00N 39°12' E 017°42'713.7
2017-Sep-17 10:30N 39°07' E 017°35'713.6
2017-Sep-17 10:00N 39°02' E 017°29'713.2
2017-Sep-17 09:30N 38°57' E 017°23'713.3
2017-Sep-17 09:00N 38°53' E 017°17'713.7
2017-Sep-17 08:30N 38°48' E 017°11'714.0
2017-Sep-17 08:00N 38°43' E 017°05'714.2
2017-Sep-17 07:30N 38°37' E 016°59'3513.7
2017-Sep-17 04:55N 38°11' E 016°29'613.4
2017-Sep-17 04:30N 38°06' E 016°25'713.5
2017-Sep-17 04:00N 38°01' E 016°19'913.6
2017-Sep-17 03:18N 37°54' E 016°11'413.9
2017-Sep-17 03:00N 37°51' E 016°07'714.0
2017-Sep-17 02:31N 37°46' E 016°01'714.0
2017-Sep-17 02:00N 37°41' E 015°55'713.7
2017-Sep-17 01:30N 37°37' E 015°49'713.3
2017-Sep-17 01:00N 37°32' E 015°42'713.4
2017-Sep-17 00:30N 37°28' E 015°36'713.2
2017-Sep-17 00:00N 37°23' E 015°30'613.0
2017-Sep-16 23:30N 37°18' E 015°25'612.9
2017-Sep-16 23:01N 37°14' E 015°19'6 1.9
2017-Sep-16 19:51N 37°11' E 015°12'0 0.0
2017-Sep-16 19:15N 37°11' E 015°12'0 0.0
2017-Sep-16 09:44N 37°11' E 015°12'0 0.0
2017-Sep-15 23:29N 37°11' E 015°12'39 1.1
2017-Sep-14 12:21N 37°38' E 015°48'514.2
2017-Sep-14 12:00N 37°42' E 015°53'713.7
2017-Sep-14 11:30N 37°47' E 015°59'12914.0
2017-Sep-14 02:17N 39°21' E 017°51'1414.1
2017-Sep-14 01:17N 39°31' E 018°05'514.3
2017-Sep-14 00:57N 39°34' E 018°09'614.1
2017-Sep-14 00:30N 39°38' E 018°15'714.1
2017-Sep-14 00:00N 39°43' E 018°22'1214.7
2017-Sep-13 23:11N 39°54' E 018°29'314.5
2017-Sep-13 22:59N 39°56' E 018°30'714.4
2017-Sep-13 22:31N 40°03' E 018°33'814.6
2017-Sep-13 22:00N 40°10' E 018°34'1114.9
2017-Sep-13 21:14N 40°21' E 018°27'414.9
2017-Sep-13 20:59N 40°24' E 018°25'714.9
2017-Sep-13 20:31N 40°30' E 018°20'714.7
2017-Sep-13 20:00N 40°36' E 018°15'1714.4
2017-Sep-13 18:50N 40°46' E 017°57'30313.6
2017-Sep-12 20:31N 44°20' E 013°07'014.4
2017-Sep-12 20:29N 44°21' E 013°07'714.3
2017-Sep-12 19:59N 44°27' E 013°04'714.2
2017-Sep-12 19:30N 44°34' E 013°01'714.1
2017-Sep-12 19:00N 44°41' E 012°58'714.1
2017-Sep-12 18:30N 44°47' E 012°55'714.3
2017-Sep-12 18:00N 44°54' E 012°50'714.4
2017-Sep-12 17:30N 44°60' E 012°45'714.5
2017-Sep-12 17:00N 45°06' E 012°41'713.6
2017-Sep-12 16:30N 45°10' E 012°33'713.1
2017-Sep-12 16:00N 45°16' E 012°28'612.1
2017-Sep-12 15:30N 45°20' E 012°21'5 9.5
2017-Sep-12 15:00N 45°22' E 012°15'4 8.0
2017-Sep-12 14:30N 45°26' E 012°15'1 2.6
2017-Sep-12 13:59N 45°26' E 012°13'0 0.0
2017-Sep-12 13:29N 45°26' E 012°13'0 0.0
2017-Sep-12 12:56N 45°26' E 012°13'0 0.0
2017-Sep-12 12:29N 45°26' E 012°13'0 0.0
2017-Sep-12 11:59N 45°26' E 012°13'0 0.0
2017-Sep-12 11:29N 45°26' E 012°13'0 0.0
2017-Sep-12 10:58N 45°26' E 012°13'0 0.0
2017-Sep-12 10:29N 45°26' E 012°13'0 0.0
2017-Sep-12 09:58N 45°26' E 012°13'0 0.0
2017-Sep-12 09:29N 45°26' E 012°13'0 0.0
2017-Sep-12 08:59N 45°26' E 012°13'0 0.0
2017-Sep-12 08:28N 45°26' E 012°13'0 0.0
2017-Sep-12 07:55N 45°26' E 012°13'0 0.0
2017-Sep-12 07:28N 45°26' E 012°13'0 0.0
2017-Sep-12 06:55N 45°26' E 012°13'0 0.0
2017-Sep-12 06:28N 45°26' E 012°13'0 0.0
2017-Sep-12 05:58N 45°26' E 012°13'0 0.0
2017-Sep-12 05:28N 45°26' E 012°13'0 0.0
2017-Sep-12 04:58N 45°26' E 012°13'0 0.0
2017-Sep-12 04:28N 45°26' E 012°13'0 0.0
2017-Sep-12 03:58N 45°26' E 012°13'0 0.0
2017-Sep-12 03:28N 45°26' E 012°13'0 0.0
2017-Sep-12 02:58N 45°26' E 012°13'0 0.0
2017-Sep-12 02:28N 45°26' E 012°13'0 0.0
2017-Sep-12 01:58N 45°26' E 012°13'0 0.0
2017-Sep-12 01:28N 45°26' E 012°13'0 0.0
2017-Sep-12 00:58N 45°26' E 012°13'0 0.0
2017-Sep-12 00:28N 45°26' E 012°13'0 0.0
2017-Sep-11 23:58N 45°26' E 012°13'0 0.0
2017-Sep-11 23:28N 45°26' E 012°13'0 0.0
2017-Sep-11 22:58N 45°26' E 012°13'0 0.0
2017-Sep-11 22:28N 45°26' E 012°13'0 0.0
2017-Sep-11 21:58N 45°26' E 012°13'0 0.0
2017-Sep-11 21:28N 45°26' E 012°13'0 0.0
2017-Sep-11 20:58N 45°26' E 012°13'0 0.0
2017-Sep-11 20:28N 45°26' E 012°13'0 0.0
2017-Sep-11 19:58N 45°26' E 012°13'0 0.0
2017-Sep-11 19:28N 45°26' E 012°13'0 0.0
2017-Sep-11 18:58N 45°26' E 012°13'0 0.0
2017-Sep-11 18:28N 45°26' E 012°13'0 0.0
2017-Sep-11 17:58N 45°26' E 012°13'0 0.0
2017-Sep-11 17:28N 45°26' E 012°13'0 0.0
2017-Sep-11 16:58N 45°26' E 012°13'0 0.0
2017-Sep-11 16:25N 45°26' E 012°13'0 0.0
2017-Sep-11 15:58N 45°26' E 012°13'0 0.0
2017-Sep-11 15:28N 45°26' E 012°13'0 0.0
2017-Sep-11 14:58N 45°26' E 012°13'0 0.0
2017-Sep-11 14:28N 45°26' E 012°13'0 0.0
2017-Sep-11 13:58N 45°26' E 012°13'0 0.0
2017-Sep-11 13:25N 45°26' E 012°13'0 0.0
2017-Sep-11 12:58N 45°26' E 012°13'0 0.0
2017-Sep-11 12:28N 45°26' E 012°13'0 0.0
2017-Sep-11 11:58N 45°26' E 012°13'0 0.0
2017-Sep-11 11:22N 45°26' E 012°13'0 0.0
2017-Sep-11 10:58N 45°26' E 012°13'0 0.0
2017-Sep-11 10:28N 45°26' E 012°13'0 0.0
2017-Sep-11 09:58N 45°26' E 012°13'0 0.0
2017-Sep-11 09:28N 45°26' E 012°13'0 0.0
2017-Sep-11 08:55N 45°26' E 012°13'0 0.0
2017-Sep-11 08:28N 45°26' E 012°13'0 0.0
2017-Sep-11 08:00N 45°26' E 012°13'0 0.4
2017-Sep-11 07:31N 45°26' E 012°14'3 5.1
2017-Sep-11 07:01N 45°24' E 012°16'4 7.6
2017-Sep-11 06:30N 45°21' E 012°17'5 9.4
2017-Sep-11 06:01N 45°20' E 012°24'0 0.6
2017-Sep-11 05:30N 45°20' E 012°24'0 0.0
2017-Sep-11 05:00N 45°20' E 012°24'0 0.1
2017-Sep-11 04:30N 45°20' E 012°24'0 0.0
2017-Sep-11 04:00N 45°20' E 012°24'0 0.0
2017-Sep-11 03:30N 45°20' E 012°24'0 0.0
2017-Sep-11 03:00N 45°20' E 012°24'0 0.0
2017-Sep-11 02:30N 45°20' E 012°24'0 0.0
2017-Sep-11 02:00N 45°20' E 012°24'0 0.0
2017-Sep-11 01:30N 45°20' E 012°24'0 0.0
2017-Sep-11 01:00N 45°20' E 012°24'0 0.0
2017-Sep-11 00:30N 45°20' E 012°24'0 0.0
2017-Sep-11 00:00N 45°20' E 012°24'0 0.0
2017-Sep-10 23:30N 45°20' E 012°24'0 0.0
2017-Sep-10 23:00N 45°20' E 012°24'0 0.0
2017-Sep-10 22:30N 45°20' E 012°24'0 0.0
2017-Sep-10 22:00N 45°20' E 012°24'0 0.0
2017-Sep-10 21:30N 45°20' E 012°24'0 0.0
2017-Sep-10 21:00N 45°20' E 012°24'0 0.0
2017-Sep-10 20:30N 45°20' E 012°24'0 0.0
2017-Sep-10 20:00N 45°20' E 012°24'0 0.0
2017-Sep-10 19:30N 45°20' E 012°24'0 0.0
2017-Sep-10 19:00N 45°20' E 012°24'0 0.0
2017-Sep-10 18:30N 45°20' E 012°24'0 0.0
2017-Sep-10 18:00N 45°20' E 012°24'0 0.0
2017-Sep-10 17:30N 45°20' E 012°24'0 0.0
2017-Sep-10 17:00N 45°20' E 012°24'0 0.0
2017-Sep-10 16:30N 45°20' E 012°24'0 0.0
2017-Sep-10 16:00N 45°20' E 012°24'0 0.5
2017-Sep-10 15:30N 45°20' E 012°24'3 6.6
2017-Sep-10 15:00N 45°18' E 012°28'1212.3
2017-Sep-10 14:00N 45°11' E 012°42'  
Track history (hours):
 
Tides and Currents Weather Stations Pressure Air Temp Water Temp Dewpoint Dewpoint Depression Visibility Wind Speed Wind Dir Waves Ship Positions

Enrico Ievoli

Last reported at 2017-Sep-20 13:37 UTC. Time now 2017-Sep-22 04:34 UTC.
Position N 44°17' E 013°09'.

Length 138 m; draft 5.7 m.

Type: Ship (hazmat cat B). MMSI: 247597000.

Date/timePositionNaut miles runAvg speedWind from/ knotsBaromVisibWave heightAir tempDewpointWater temp
2017-Sep-20 13:37N 44°17' E 013°09'214.2
2017-Sep-20 13:30N 44°18' E 013°09'714.1
2017-Sep-20 12:59N 44°25' E 013°06'714.2
2017-Sep-20 12:30N 44°31' E 013°03'714.4
2017-Sep-20 12:00N 44°38' E 012°59'714.4
2017-Sep-20 11:31N 44°45' E 012°56'714.5
2017-Sep-20 11:00N 44°52' E 012°51'714.6
2017-Sep-20 10:30N 44°58' E 012°47'714.5
2017-Sep-20 10:00N 45°05' E 012°42'714.0
2017-Sep-20 09:31N 45°09' E 012°34'713.7
2017-Sep-20 09:00N 45°14' E 012°28'613.0
2017-Sep-20 08:30N 45°19' E 012°23'510.0
2017-Sep-20 08:00N 45°21' E 012°16'5 9.3
2017-Sep-20 07:30N 45°26' E 012°16'2 3.2
2017-Sep-20 06:58N 45°26' E 012°13'0 0.0
2017-Sep-20 06:28N 45°26' E 012°13'0 0.0
2017-Sep-20 05:58N 45°26' E 012°13'0 0.0
2017-Sep-20 05:28N 45°26' E 012°13'0 0.0
2017-Sep-20 04:58N 45°26' E 012°13'0 0.0
2017-Sep-20 04:28N 45°26' E 012°13'0 0.0
2017-Sep-20 03:58N 45°26' E 012°13'0 0.0
2017-Sep-20 03:28N 45°26' E 012°13'0 0.0
2017-Sep-20 02:58N 45°26' E 012°13'0 0.0
2017-Sep-20 02:30N 45°26' E 012°13'0 0.0
2017-Sep-20 02:00N 45°26' E 012°13'0 0.0
2017-Sep-20 01:30N 45°26' E 012°13'0 0.0
2017-Sep-20 01:00N 45°26' E 012°13'0 0.0
2017-Sep-20 00:27N 45°26' E 012°13'0 0.0
2017-Sep-20 00:00N 45°26' E 012°13'0 0.0
2017-Sep-19 23:30N 45°26' E 012°13'0 0.0
2017-Sep-19 23:01N 45°26' E 012°13'0 0.0
2017-Sep-19 22:30N 45°26' E 012°13'0 0.0
2017-Sep-19 22:00N 45°26' E 012°13'0 0.0
2017-Sep-19 21:30N 45°26' E 012°13'0 0.0
2017-Sep-19 21:00N 45°26' E 012°13'0 0.0
2017-Sep-19 20:27N 45°26' E 012°13'0 0.0
2017-Sep-19 20:00N 45°26' E 012°13'0 0.0
2017-Sep-19 19:30N 45°26' E 012°13'0 0.0
2017-Sep-19 19:00N 45°26' E 012°13'0 0.0
2017-Sep-19 18:30N 45°26' E 012°13'0 0.0
2017-Sep-19 18:00N 45°26' E 012°13'0 0.0
2017-Sep-19 17:27N 45°26' E 012°13'0 0.0
2017-Sep-19 17:00N 45°26' E 012°13'0 0.0
2017-Sep-19 16:30N 45°26' E 012°13'0 0.0
2017-Sep-19 16:00N 45°26' E 012°13'0 0.0
2017-Sep-19 15:30N 45°26' E 012°13'0 0.0
2017-Sep-19 15:00N 45°26' E 012°13'0 0.0
2017-Sep-19 14:27N 45°26' E 012°13'0 0.0
2017-Sep-19 14:00N 45°26' E 012°13'0 0.0
2017-Sep-19 13:30N 45°26' E 012°13'0 0.0
2017-Sep-19 13:00N 45°26' E 012°13'0 0.0
2017-Sep-19 12:30N 45°26' E 012°13'0 0.0
2017-Sep-19 12:00N 45°26' E 012°13'0 0.0
2017-Sep-19 11:30N 45°26' E 012°13'0 0.0
2017-Sep-19 11:00N 45°26' E 012°13'0 0.0
2017-Sep-19 10:30N 45°26' E 012°13'0 0.0
2017-Sep-19 10:00N 45°26' E 012°13'0 0.0
2017-Sep-19 09:30N 45°26' E 012°13'0 0.0
2017-Sep-19 09:00N 45°26' E 012°13'0 0.0
2017-Sep-19 08:30N 45°26' E 012°13'0 0.0
2017-Sep-19 07:57N 45°26' E 012°13'0 0.0
2017-Sep-19 07:30N 45°26' E 012°13'0 0.0
2017-Sep-19 07:00N 45°26' E 012°13'0 0.0
2017-Sep-19 06:30N 45°26' E 012°13'0 0.0
2017-Sep-19 06:00N 45°26' E 012°13'0 0.1
2017-Sep-19 05:30N 45°26' E 012°13'2 3.5
2017-Sep-19 05:00N 45°25' E 012°16'4 8.9
2017-Sep-19 04:30N 45°21' E 012°16'510.9
2017-Sep-19 04:00N 45°20' E 012°23'4 8.1
2017-Sep-19 03:31N 45°19' E 012°29'4 8.1
2017-Sep-19 03:00N 45°16' E 012°33'5 9.9
2017-Sep-19 02:30N 45°13' E 012°39'510.0
2017-Sep-19 02:00N 45°10' E 012°44'510.0
2017-Sep-19 01:30N 45°07' E 012°50'510.1
2017-Sep-19 01:00N 45°02' E 012°53'510.4
2017-Sep-19 00:31N 44°58' E 012°56'510.4
2017-Sep-19 00:00N 44°53' E 012°59'510.6
2017-Sep-18 23:30N 44°48' E 013°02'510.8
2017-Sep-18 23:00N 44°43' E 013°04'611.1
2017-Sep-18 22:30N 44°38' E 013°07'611.3
2017-Sep-18 22:00N 44°32' E 013°09'611.1
2017-Sep-18 21:30N 44°27' E 013°11'510.5
2017-Sep-18 21:00N 44°22' E 013°14'5 9.9
2017-Sep-18 20:30N 44°17' E 013°16'35312.1
2017-Sep-17 15:18N 39°54' E 018°32'413.9
2017-Sep-17 15:00N 39°50' E 018°30'713.5
2017-Sep-17 14:30N 39°44' E 018°26'713.4
2017-Sep-17 14:00N 39°39' E 018°20'713.1
2017-Sep-17 13:30N 39°35' E 018°14'713.4
2017-Sep-17 13:01N 39°30' E 018°08'713.7
2017-Sep-17 12:30N 39°26' E 018°01'713.7
2017-Sep-17 12:00N 39°21' E 017°55'713.8
2017-Sep-17 11:30N 39°16' E 017°48'713.6
2017-Sep-17 11:00N 39°12' E 017°42'713.7
2017-Sep-17 10:30N 39°07' E 017°35'713.6
2017-Sep-17 10:00N 39°02' E 017°29'713.2
2017-Sep-17 09:30N 38°57' E 017°23'713.3
2017-Sep-17 09:00N 38°53' E 017°17'713.7
2017-Sep-17 08:30N 38°48' E 017°11'714.0
2017-Sep-17 08:00N 38°43' E 017°05'714.2
2017-Sep-17 07:30N 38°37' E 016°59'3513.7
2017-Sep-17 04:55N 38°11' E 016°29'613.4
2017-Sep-17 04:30N 38°06' E 016°25'713.5
2017-Sep-17 04:00N 38°01' E 016°19'913.6
2017-Sep-17 03:18N 37°54' E 016°11'413.9
2017-Sep-17 03:00N 37°51' E 016°07'714.0
2017-Sep-17 02:31N 37°46' E 016°01'714.0
2017-Sep-17 02:00N 37°41' E 015°55'713.7
2017-Sep-17 01:30N 37°37' E 015°49'713.3
2017-Sep-17 01:00N 37°32' E 015°42'713.4
2017-Sep-17 00:30N 37°28' E 015°36'713.2
2017-Sep-17 00:00N 37°23' E 015°30'613.0
2017-Sep-16 23:30N 37°18' E 015°25'612.9
2017-Sep-16 23:01N 37°14' E 015°19'6 1.9
2017-Sep-16 19:51N 37°11' E 015°12'0 0.0
2017-Sep-16 19:15N 37°11' E 015°12'0 0.0
2017-Sep-16 09:44N 37°11' E 015°12'0 0.0
2017-Sep-15 23:29N 37°11' E 015°12'39 1.1
2017-Sep-14 12:21N 37°38' E 015°48'514.2
2017-Sep-14 12:00N 37°42' E 015°53'713.7
2017-Sep-14 11:30N 37°47' E 015°59'12914.0
2017-Sep-14 02:17N 39°21' E 017°51'1414.1
2017-Sep-14 01:17N 39°31' E 018°05'514.3
2017-Sep-14 00:57N 39°34' E 018°09'614.1
2017-Sep-14 00:30N 39°38' E 018°15'714.1
2017-Sep-14 00:00N 39°43' E 018°22'1214.7
2017-Sep-13 23:11N 39°54' E 018°29'314.5
2017-Sep-13 22:59N 39°56' E 018°30'714.4
2017-Sep-13 22:31N 40°03' E 018°33'814.6
2017-Sep-13 22:00N 40°10' E 018°34'1114.9
2017-Sep-13 21:14N 40°21' E 018°27'414.9
2017-Sep-13 20:59N 40°24' E 018°25'714.9
2017-Sep-13 20:31N 40°30' E 018°20'714.7
2017-Sep-13 20:00N 40°36' E 018°15'1714.4
2017-Sep-13 18:50N 40°46' E 017°57'30313.6
2017-Sep-12 20:31N 44°20' E 013°07'014.4
2017-Sep-12 20:29N 44°21' E 013°07'714.3
2017-Sep-12 19:59N 44°27' E 013°04'714.2
2017-Sep-12 19:30N 44°34' E 013°01'714.1
2017-Sep-12 19:00N 44°41' E 012°58'714.1
2017-Sep-12 18:30N 44°47' E 012°55'714.3
2017-Sep-12 18:00N 44°54' E 012°50'714.4
2017-Sep-12 17:30N 44°60' E 012°45'714.5
2017-Sep-12 17:00N 45°06' E 012°41'713.6
2017-Sep-12 16:30N 45°10' E 012°33'713.1
2017-Sep-12 16:00N 45°16' E 012°28'612.1
2017-Sep-12 15:30N 45°20' E 012°21'5 9.5
2017-Sep-12 15:00N 45°22' E 012°15'4 8.0
2017-Sep-12 14:30N 45°26' E 012°15'1 2.6
2017-Sep-12 13:59N 45°26' E 012°13'0 0.0
2017-Sep-12 13:29N 45°26' E 012°13'0 0.0
2017-Sep-12 12:56N 45°26' E 012°13'0 0.0
2017-Sep-12 12:29N 45°26' E 012°13'0 0.0
2017-Sep-12 11:59N 45°26' E 012°13'0 0.0
2017-Sep-12 11:29N 45°26' E 012°13'0 0.0
2017-Sep-12 10:58N 45°26' E 012°13'0 0.0
2017-Sep-12 10:29N 45°26' E 012°13'0 0.0
2017-Sep-12 09:58N 45°26' E 012°13'0 0.0
2017-Sep-12 09:29N 45°26' E 012°13'0 0.0
2017-Sep-12 08:59N 45°26' E 012°13'0 0.0
2017-Sep-12 08:28N 45°26' E 012°13'0 0.0
2017-Sep-12 07:55N 45°26' E 012°13'0 0.0
2017-Sep-12 07:28N 45°26' E 012°13'0 0.0
2017-Sep-12 06:55N 45°26' E 012°13'0 0.0
2017-Sep-12 06:28N 45°26' E 012°13'0 0.0
2017-Sep-12 05:58N 45°26' E 012°13'0 0.0
2017-Sep-12 05:28N 45°26' E 012°13'0 0.0
2017-Sep-12 04:58N 45°26' E 012°13'0 0.0
2017-Sep-12 04:28N 45°26' E 012°13'0 0.0
2017-Sep-12 03:58N 45°26' E 012°13'0 0.0
2017-Sep-12 03:28N 45°26' E 012°13'0 0.0
2017-Sep-12 02:58N 45°26' E 012°13'0 0.0
2017-Sep-12 02:28N 45°26' E 012°13'0 0.0
2017-Sep-12 01:58N 45°26' E 012°13'0 0.0
2017-Sep-12 01:28N 45°26' E 012°13'0 0.0
2017-Sep-12 00:58N 45°26' E 012°13'0 0.0
2017-Sep-12 00:28N 45°26' E 012°13'0 0.0
2017-Sep-11 23:58N 45°26' E 012°13'0 0.0
2017-Sep-11 23:28N 45°26' E 012°13'0 0.0
2017-Sep-11 22:58N 45°26' E 012°13'0 0.0
2017-Sep-11 22:28N 45°26' E 012°13'0 0.0
2017-Sep-11 21:58N 45°26' E 012°13'0 0.0
2017-Sep-11 21:28N 45°26' E 012°13'0 0.0
2017-Sep-11 20:58N 45°26' E 012°13'0 0.0
2017-Sep-11 20:28N 45°26' E 012°13'0 0.0
2017-Sep-11 19:58N 45°26' E 012°13'0 0.0
2017-Sep-11 19:28N 45°26' E 012°13'0 0.0
2017-Sep-11 18:58N 45°26' E 012°13'0 0.0
2017-Sep-11 18:28N 45°26' E 012°13'0 0.0
2017-Sep-11 17:58N 45°26' E 012°13'0 0.0
2017-Sep-11 17:28N 45°26' E 012°13'0 0.0
2017-Sep-11 16:58N 45°26' E 012°13'0 0.0
2017-Sep-11 16:25N 45°26' E 012°13'0 0.0
2017-Sep-11 15:58N 45°26' E 012°13'0 0.0
2017-Sep-11 15:28N 45°26' E 012°13'0 0.0
2017-Sep-11 14:58N 45°26' E 012°13'0 0.0
2017-Sep-11 14:28N 45°26' E 012°13'0 0.0
2017-Sep-11 13:58N 45°26' E 012°13'0 0.0
2017-Sep-11 13:25N 45°26' E 012°13'0 0.0
2017-Sep-11 12:58N 45°26' E 012°13'0 0.0
2017-Sep-11 12:28N 45°26' E 012°13'0 0.0
2017-Sep-11 11:58N 45°26' E 012°13'0 0.0
2017-Sep-11 11:22N 45°26' E 012°13'0 0.0
2017-Sep-11 10:58N 45°26' E 012°13'0 0.0
2017-Sep-11 10:28N 45°26' E 012°13'0 0.0
2017-Sep-11 09:58N 45°26' E 012°13'0 0.0
2017-Sep-11 09:28N 45°26' E 012°13'0 0.0
2017-Sep-11 08:55N 45°26' E 012°13'0 0.0
2017-Sep-11 08:28N 45°26' E 012°13'0 0.0
2017-Sep-11 08:00N 45°26' E 012°13'0 0.4
2017-Sep-11 07:31N 45°26' E 012°14'3 5.1
2017-Sep-11 07:01N 45°24' E 012°16'4 7.6
2017-Sep-11 06:30N 45°21' E 012°17'5 9.4
2017-Sep-11 06:01N 45°20' E 012°24'0 0.6
2017-Sep-11 05:30N 45°20' E 012°24'0 0.0
2017-Sep-11 05:00N 45°20' E 012°24'0 0.1
2017-Sep-11 04:30N 45°20' E 012°24'0 0.0
2017-Sep-11 04:00N 45°20' E 012°24'0 0.0
2017-Sep-11 03:30N 45°20' E 012°24'0 0.0
2017-Sep-11 03:00N 45°20' E 012°24'0 0.0
2017-Sep-11 02:30N 45°20' E 012°24'0 0.0
2017-Sep-11 02:00N 45°20' E 012°24'0 0.0
2017-Sep-11 01:30N 45°20' E 012°24'0 0.0
2017-Sep-11 01:00N 45°20' E 012°24'0 0.0
2017-Sep-11 00:30N 45°20' E 012°24'0 0.0
2017-Sep-11 00:00N 45°20' E 012°24'0 0.0
2017-Sep-10 23:30N 45°20' E 012°24'0 0.0
2017-Sep-10 23:00N 45°20' E 012°24'0 0.0
2017-Sep-10 22:30N 45°20' E 012°24'0 0.0
2017-Sep-10 22:00N 45°20' E 012°24'0 0.0
2017-Sep-10 21:30N 45°20' E 012°24'0 0.0
2017-Sep-10 21:00N 45°20' E 012°24'0 0.0
2017-Sep-10 20:30N 45°20' E 012°24'0 0.0
2017-Sep-10 20:00N 45°20' E 012°24'0 0.0
2017-Sep-10 19:30N 45°20' E 012°24'0 0.0
2017-Sep-10 19:00N 45°20' E 012°24'0 0.0
2017-Sep-10 18:30N 45°20' E 012°24'0 0.0
2017-Sep-10 18:00N 45°20' E 012°24'0 0.0
2017-Sep-10 17:30N 45°20' E 012°24'0 0.0
2017-Sep-10 17:00N 45°20' E 012°24'0 0.0
2017-Sep-10 16:30N 45°20' E 012°24'0 0.0
2017-Sep-10 16:00N 45°20' E 012°24'0 0.5
2017-Sep-10 15:30N 45°20' E 012°24'3 6.6
2017-Sep-10 15:00N 45°18' E 012°28'1212.3
2017-Sep-10 14:00N 45°11' E 012°42'  

Dump ship's entire track history